sensor_id;sensor_type;location;lat;lon;timestamp;P1;durP1;ratioP1;P2;durP2;ratioP2
74180;SDS011;62544;50.826;14.354;2023-02-03T00:00:32;25.97;;;8.97;;
74180;SDS011;62544;50.826;14.354;2023-02-03T00:04:48;25.97;;;8.97;;
74180;SDS011;62544;50.826;14.354;2023-02-03T00:09:04;53.48;;;11.39;;
74180;SDS011;62544;50.826;14.354;2023-02-03T00:13:20;53.48;;;11.39;;
74180;SDS011;62544;50.826;14.354;2023-02-03T00:17:36;60.53;;;14.14;;
74180;SDS011;62544;50.826;14.354;2023-02-03T00:21:52;60.53;;;14.14;;
74180;SDS011;62544;50.826;14.354;2023-02-03T00:26:09;60.53;;;14.14;;
74180;SDS011;62544;50.826;14.354;2023-02-03T00:30:24;75.81;;;19.32;;
74180;SDS011;62544;50.826;14.354;2023-02-03T00:34:40;75.81;;;19.32;;
74180;SDS011;62544;50.826;14.354;2023-02-03T00:38:56;63.73;;;17.34;;
74180;SDS011;62544;50.826;14.354;2023-02-03T00:43:12;63.73;;;17.34;;
74180;SDS011;62544;50.826;14.354;2023-02-03T00:47:28;40.27;;;13.42;;
74180;SDS011;62544;50.826;14.354;2023-02-03T00:51:44;40.27;;;13.42;;
74180;SDS011;62544;50.826;14.354;2023-02-03T00:56:00;40.27;;;13.42;;
74180;SDS011;62544;50.826;14.354;2023-02-03T01:00:17;37.95;;;13.09;;
74180;SDS011;62544;50.826;14.354;2023-02-03T01:04:32;37.95;;;13.09;;
74180;SDS011;62544;50.826;14.354;2023-02-03T01:08:48;33.43;;;12.18;;
74180;SDS011;62544;50.826;14.354;2023-02-03T01:13:04;33.43;;;12.18;;
74180;SDS011;62544;50.826;14.354;2023-02-03T01:17:20;36.26;;;12.63;;
74180;SDS011;62544;50.826;14.354;2023-02-03T01:21:36;36.26;;;12.63;;
74180;SDS011;62544;50.826;14.354;2023-02-03T01:25:52;36.26;;;12.63;;
74180;SDS011;62544;50.826;14.354;2023-02-03T01:30:09;27.01;;;11.02;;
74180;SDS011;62544;50.826;14.354;2023-02-03T01:34:24;27.01;;;11.02;;
74180;SDS011;62544;50.826;14.354;2023-02-03T01:38:40;26.49;;;10.40;;
74180;SDS011;62544;50.826;14.354;2023-02-03T01:42:56;26.49;;;10.40;;
74180;SDS011;62544;50.826;14.354;2023-02-03T01:51:28;24.89;;;10.14;;
74180;SDS011;62544;50.826;14.354;2023-02-03T01:55:46;24.89;;;10.14;;
74180;SDS011;62544;50.826;14.354;2023-02-03T02:00:00;24.87;;;10.33;;
74180;SDS011;62544;50.826;14.354;2023-02-03T02:04:16;24.87;;;10.33;;
74180;SDS011;62544;50.826;14.354;2023-02-03T02:08:32;19.36;;;8.68;;
74180;SDS011;62544;50.826;14.354;2023-02-03T02:12:48;19.36;;;8.68;;
74180;SDS011;62544;50.826;14.354;2023-02-03T02:17:13;19.36;;;8.68;;
74180;SDS011;62544;50.826;14.354;2023-02-03T02:21:39;28.63;;;11.14;;
74180;SDS011;62544;50.826;14.354;2023-02-03T02:25:47;28.63;;;11.14;;
74180;SDS011;62544;50.826;14.354;2023-02-03T02:38:27;17.17;;;7.22;;
74180;SDS011;62544;50.826;14.354;2023-02-03T02:46:57;17.17;;;7.22;;
74180;SDS011;62544;50.826;14.354;2023-02-03T02:51:13;16.99;;;7.85;;
74180;SDS011;62544;50.826;14.354;2023-02-03T02:55:29;16.99;;;7.85;;
74180;SDS011;62544;50.826;14.354;2023-02-03T02:59:45;16.97;;;7.30;;
74180;SDS011;62544;50.826;14.354;2023-02-03T03:04:02;16.97;;;7.30;;
74180;SDS011;62544;50.826;14.354;2023-02-03T03:08:17;17.24;;;7.08;;
74180;SDS011;62544;50.826;14.354;2023-02-03T03:12:33;17.24;;;7.08;;
74180;SDS011;62544;50.826;14.354;2023-02-03T03:16:51;17.24;;;7.08;;
74180;SDS011;62544;50.826;14.354;2023-02-03T03:21:04;16.64;;;6.75;;
74180;SDS011;62544;50.826;14.354;2023-02-03T03:25:22;16.64;;;6.75;;
74180;SDS011;62544;50.826;14.354;2023-02-03T03:29:41;12.45;;;5.53;;
74180;SDS011;62544;50.826;14.354;2023-02-03T03:33:52;12.45;;;5.53;;
74180;SDS011;62544;50.826;14.354;2023-02-03T03:38:10;11.51;;;5.63;;
74180;SDS011;62544;50.826;14.354;2023-02-03T03:46:44;11.51;;;5.63;;
74180;SDS011;62544;50.826;14.354;2023-02-03T03:51:06;9.48;;;5.08;;
74180;SDS011;62544;50.826;14.354;2023-02-03T03:55:13;9.48;;;5.08;;
74180;SDS011;62544;50.826;14.354;2023-02-03T03:59:30;10.53;;;5.87;;
74180;SDS011;62544;50.826;14.354;2023-02-03T04:03:48;10.53;;;5.87;;
74180;SDS011;62544;50.826;14.354;2023-02-03T04:08:00;12.40;;;6.23;;
74180;SDS011;62544;50.826;14.354;2023-02-03T04:12:22;12.40;;;6.23;;
74180;SDS011;62544;50.826;14.354;2023-02-03T04:16:32;12.40;;;6.23;;
74180;SDS011;62544;50.826;14.354;2023-02-03T04:20:48;9.75;;;5.30;;
74180;SDS011;62544;50.826;14.354;2023-02-03T04:25:05;9.75;;;5.30;;
74180;SDS011;62544;50.826;14.354;2023-02-03T04:29:20;10.42;;;5.40;;
74180;SDS011;62544;50.826;14.354;2023-02-03T04:33:36;10.42;;;5.40;;
74180;SDS011;62544;50.826;14.354;2023-02-03T04:37:52;6.75;;;3.82;;
74180;SDS011;62544;50.826;14.354;2023-02-03T04:42:08;6.75;;;3.82;;
74180;SDS011;62544;50.826;14.354;2023-02-03T04:46:24;6.75;;;3.82;;
74180;SDS011;62544;50.826;14.354;2023-02-03T04:50:40;5.14;;;3.08;;
74180;SDS011;62544;50.826;14.354;2023-02-03T04:54:56;5.14;;;3.08;;
74180;SDS011;62544;50.826;14.354;2023-02-03T04:59:12;3.68;;;2.65;;
74180;SDS011;62544;50.826;14.354;2023-02-03T05:03:28;3.68;;;2.65;;
74180;SDS011;62544;50.826;14.354;2023-02-03T05:07:44;3.50;;;2.49;;
74180;SDS011;62544;50.826;14.354;2023-02-03T05:12:00;3.50;;;2.49;;
74180;SDS011;62544;50.826;14.354;2023-02-03T05:16:16;3.50;;;2.49;;
74180;SDS011;62544;50.826;14.354;2023-02-03T05:20:32;60.99;;;14.47;;
74180;SDS011;62544;50.826;14.354;2023-02-03T05:24:48;60.99;;;14.47;;
74180;SDS011;62544;50.826;14.354;2023-02-03T05:29:04;61.76;;;15.46;;
74180;SDS011;62544;50.826;14.354;2023-02-03T05:33:20;61.76;;;15.46;;
74180;SDS011;62544;50.826;14.354;2023-02-03T05:37:36;46.50;;;11.93;;
74180;SDS011;62544;50.826;14.354;2023-02-03T05:41:52;46.50;;;11.93;;
74180;SDS011;62544;50.826;14.354;2023-02-03T05:46:08;46.50;;;11.93;;
74180;SDS011;62544;50.826;14.354;2023-02-03T05:50:24;9.30;;;3.82;;
74180;SDS011;62544;50.826;14.354;2023-02-03T05:54:40;9.30;;;3.82;;
74180;SDS011;62544;50.826;14.354;2023-02-03T05:58:56;12.33;;;4.76;;
74180;SDS011;62544;50.826;14.354;2023-02-03T06:03:12;12.33;;;4.76;;
74180;SDS011;62544;50.826;14.354;2023-02-03T06:07:28;10.84;;;4.56;;
74180;SDS011;62544;50.826;14.354;2023-02-03T06:11:44;10.84;;;4.56;;
74180;SDS011;62544;50.826;14.354;2023-02-03T06:16:01;10.84;;;4.56;;
74180;SDS011;62544;50.826;14.354;2023-02-03T06:20:17;7.33;;;3.81;;
74180;SDS011;62544;50.826;14.354;2023-02-03T06:24:32;7.33;;;3.81;;
74180;SDS011;62544;50.826;14.354;2023-02-03T06:28:48;10.10;;;5.00;;
74180;SDS011;62544;50.826;14.354;2023-02-03T06:33:04;10.10;;;5.00;;
74180;SDS011;62544;50.826;14.354;2023-02-03T06:37:20;9.56;;;5.48;;
74180;SDS011;62544;50.826;14.354;2023-02-03T06:41:36;9.56;;;5.48;;
74180;SDS011;62544;50.826;14.354;2023-02-03T06:45:52;9.56;;;5.48;;
74180;SDS011;62544;50.826;14.354;2023-02-03T06:50:09;10.76;;;6.13;;
74180;SDS011;62544;50.826;14.354;2023-02-03T06:54:24;10.76;;;6.13;;
74180;SDS011;62544;50.826;14.354;2023-02-03T06:58:40;13.58;;;7.54;;
74180;SDS011;62544;50.826;14.354;2023-02-03T07:02:56;13.58;;;7.54;;
74180;SDS011;62544;50.826;14.354;2023-02-03T07:07:12;13.42;;;7.90;;
74180;SDS011;62544;50.826;14.354;2023-02-03T07:11:28;13.42;;;7.90;;
74180;SDS011;62544;50.826;14.354;2023-02-03T07:15:44;13.42;;;7.90;;
74180;SDS011;62544;50.826;14.354;2023-02-03T07:20:00;13.05;;;7.47;;
74180;SDS011;62544;50.826;14.354;2023-02-03T07:24:17;13.05;;;7.47;;
74180;SDS011;62544;50.826;14.354;2023-02-03T07:28:33;13.91;;;7.87;;
74180;SDS011;62544;50.826;14.354;2023-02-03T07:32:49;13.91;;;7.87;;
74180;SDS011;62544;50.826;14.354;2023-02-03T07:37:04;13.91;;;7.87;;
74180;SDS011;62544;50.826;14.354;2023-02-03T07:41:20;12.17;;;6.53;;
74180;SDS011;62544;50.826;14.354;2023-02-03T07:45:36;12.17;;;6.53;;
74180;SDS011;62544;50.826;14.354;2023-02-03T07:49:52;13.99;;;7.73;;
74180;SDS011;62544;50.826;14.354;2023-02-03T07:54:08;13.99;;;7.73;;
74180;SDS011;62544;50.826;14.354;2023-02-03T07:58:24;54.48;;;35.45;;
74180;SDS011;62544;50.826;14.354;2023-02-03T08:02:43;54.48;;;35.45;;
74180;SDS011;62544;50.826;14.354;2023-02-03T08:06:56;54.48;;;35.45;;
74180;SDS011;62544;50.826;14.354;2023-02-03T08:11:12;29.77;;;15.87;;
74180;SDS011;62544;50.826;14.354;2023-02-03T08:15:28;29.77;;;15.87;;
74180;SDS011;62544;50.826;14.354;2023-02-03T08:19:44;23.71;;;11.57;;
74180;SDS011;62544;50.826;14.354;2023-02-03T08:24:00;23.71;;;11.57;;
74180;SDS011;62544;50.826;14.354;2023-02-03T08:28:16;24.75;;;9.65;;
74180;SDS011;62544;50.826;14.354;2023-02-03T08:32:32;24.75;;;9.65;;
74180;SDS011;62544;50.826;14.354;2023-02-03T08:36:48;24.75;;;9.65;;
74180;SDS011;62544;50.826;14.354;2023-02-03T08:41:08;24.75;;;9.65;;
74180;SDS011;62544;50.826;14.354;2023-02-03T08:45:20;24.75;;;9.65;;
74180;SDS011;62544;50.826;14.354;2023-02-03T08:49:36;24.75;;;9.65;;
74180;SDS011;62544;50.826;14.354;2023-02-03T08:53:52;24.75;;;9.65;;
74180;SDS011;62544;50.826;14.354;2023-02-03T08:58:08;9.11;;;4.69;;
74180;SDS011;62544;50.826;14.354;2023-02-03T09:02:24;9.11;;;4.69;;
74180;SDS011;62544;50.826;14.354;2023-02-03T09:06:40;9.11;;;4.69;;
74180;SDS011;62544;50.826;14.354;2023-02-03T09:10:56;9.11;;;4.69;;
74180;SDS011;62544;50.826;14.354;2023-02-03T09:15:12;9.11;;;4.69;;
74180;SDS011;62544;50.826;14.354;2023-02-03T09:19:28;9.11;;;4.69;;
74180;SDS011;62544;50.826;14.354;2023-02-03T09:23:44;9.11;;;4.69;;
74180;SDS011;62544;50.826;14.354;2023-02-03T09:28:00;9.11;;;4.69;;
74180;SDS011;62544;50.826;14.354;2023-02-03T09:32:16;9.11;;;4.69;;
74180;SDS011;62544;50.826;14.354;2023-02-03T09:36:32;9.11;;;4.69;;
74180;SDS011;62544;50.826;14.354;2023-02-03T09:45:09;9.11;;;4.69;;
74180;SDS011;62544;50.826;14.354;2023-02-03T09:49:21;9.11;;;4.69;;
74180;SDS011;62544;50.826;14.354;2023-02-03T09:53:38;9.11;;;4.69;;
74180;SDS011;62544;50.826;14.354;2023-02-03T10:02:19;9.11;;;4.69;;
74180;SDS011;62544;50.826;14.354;2023-02-03T10:06:30;9.11;;;4.69;;
74180;SDS011;62544;50.826;14.354;2023-02-03T10:10:41;9.11;;;4.69;;
74180;SDS011;62544;50.826;14.354;2023-02-03T10:15:01;9.11;;;4.69;;
74180;SDS011;62544;50.826;14.354;2023-02-03T10:19:14;1.12;;;0.79;;
74180;SDS011;62544;50.826;14.354;2023-02-03T10:23:29;1.12;;;0.79;;
74180;SDS011;62544;50.826;14.354;2023-02-03T10:27:44;1.09;;;0.78;;
74180;SDS011;62544;50.826;14.354;2023-02-03T10:32:00;1.09;;;0.78;;
74180;SDS011;62544;50.826;14.354;2023-02-03T10:36:22;1.09;;;0.78;;
74180;SDS011;62544;50.826;14.354;2023-02-03T10:40:32;1.73;;;0.76;;
74180;SDS011;62544;50.826;14.354;2023-02-03T10:44:50;1.73;;;0.76;;
74180;SDS011;62544;50.826;14.354;2023-02-03T10:49:04;1.06;;;0.68;;
74180;SDS011;62544;50.826;14.354;2023-02-03T10:53:21;1.06;;;0.68;;
74180;SDS011;62544;50.826;14.354;2023-02-03T10:57:36;1.20;;;0.96;;
74180;SDS011;62544;50.826;14.354;2023-02-03T11:01:52;1.20;;;0.96;;
74180;SDS011;62544;50.826;14.354;2023-02-03T11:06:09;1.20;;;0.96;;
74180;SDS011;62544;50.826;14.354;2023-02-03T11:10:28;0.81;;;0.45;;
74180;SDS011;62544;50.826;14.354;2023-02-03T11:14:44;0.81;;;0.45;;
74180;SDS011;62544;50.826;14.354;2023-02-03T11:18:59;0.81;;;0.45;;
74180;SDS011;62544;50.826;14.354;2023-02-03T11:23:12;0.81;;;0.45;;
74180;SDS011;62544;50.826;14.354;2023-02-03T11:27:28;0.86;;;0.38;;
74180;SDS011;62544;50.826;14.354;2023-02-03T11:31:46;0.86;;;0.38;;
74180;SDS011;62544;50.826;14.354;2023-02-03T11:36:00;0.86;;;0.38;;
74180;SDS011;62544;50.826;14.354;2023-02-03T11:44:32;0.49;;;0.37;;
74180;SDS011;62544;50.826;14.354;2023-02-03T11:48:53;1.06;;;0.47;;
74180;SDS011;62544;50.826;14.354;2023-02-03T11:57:24;0.57;;;0.38;;
74180;SDS011;62544;50.826;14.354;2023-02-03T12:23:02;0.36;;;0.17;;
74180;SDS011;62544;50.826;14.354;2023-02-03T12:27:24;0.22;;;0.12;;
74180;SDS011;62544;50.826;14.354;2023-02-03T12:31:42;0.22;;;0.12;;
74180;SDS011;62544;50.826;14.354;2023-02-03T12:35:48;0.22;;;0.12;;
74180;SDS011;62544;50.826;14.354;2023-02-03T12:40:11;0.16;;;0.16;;
74180;SDS011;62544;50.826;14.354;2023-02-03T12:44:20;0.16;;;0.16;;
74180;SDS011;62544;50.826;14.354;2023-02-03T12:52:52;0.34;;;0.11;;
74180;SDS011;62544;50.826;14.354;2023-02-03T13:05:53;0.14;;;0.10;;
74180;SDS011;62544;50.826;14.354;2023-02-03T13:18:25;0.09;;;0.09;;
74180;SDS011;62544;50.826;14.354;2023-02-03T13:22:40;0.09;;;0.09;;
74180;SDS011;62544;50.826;14.354;2023-02-03T13:27:12;0.09;;;0.09;;
74180;SDS011;62544;50.826;14.354;2023-02-03T13:35:38;0.54;;;0.24;;
74180;SDS011;62544;50.826;14.354;2023-02-03T13:39:52;0.44;;;0.21;;
74180;SDS011;62544;50.826;14.354;2023-02-03T13:44:00;0.44;;;0.21;;
74180;SDS011;62544;50.826;14.354;2023-02-03T13:48:23;0.74;;;0.26;;
74180;SDS011;62544;50.826;14.354;2023-02-03T13:52:36;0.74;;;0.26;;
74180;SDS011;62544;50.826;14.354;2023-02-03T13:56:58;0.74;;;0.26;;
74180;SDS011;62544;50.826;14.354;2023-02-03T14:01:05;2.33;;;0.38;;
74180;SDS011;62544;50.826;14.354;2023-02-03T14:05:38;2.33;;;0.38;;
74180;SDS011;62544;50.826;14.354;2023-02-03T14:09:36;3.20;;;0.54;;
74180;SDS011;62544;50.826;14.354;2023-02-03T14:13:52;3.20;;;0.54;;
74180;SDS011;62544;50.826;14.354;2023-02-03T14:22:24;3.97;;;0.68;;
74180;SDS011;62544;50.826;14.354;2023-02-03T14:26:41;3.97;;;0.68;;
74180;SDS011;62544;50.826;14.354;2023-02-03T14:35:18;4.20;;;0.69;;
74180;SDS011;62544;50.826;14.354;2023-02-03T14:43:48;3.03;;;0.63;;
74180;SDS011;62544;50.826;14.354;2023-02-03T14:52:19;3.03;;;0.63;;
74180;SDS011;62544;50.826;14.354;2023-02-03T15:00:51;8.11;;;1.52;;
74180;SDS011;62544;50.826;14.354;2023-02-03T15:09:38;10.01;;;1.74;;
74180;SDS011;62544;50.826;14.354;2023-02-03T15:13:36;10.01;;;1.74;;
74180;SDS011;62544;50.826;14.354;2023-02-03T15:17:56;10.01;;;1.74;;
74180;SDS011;62544;50.826;14.354;2023-02-03T15:22:20;10.01;;;1.74;;
74180;SDS011;62544;50.826;14.354;2023-02-03T15:26:24;10.01;;;1.74;;
74180;SDS011;62544;50.826;14.354;2023-02-03T15:30:40;10.01;;;1.74;;
74180;SDS011;62544;50.826;14.354;2023-02-03T15:34:56;10.01;;;1.74;;
74180;SDS011;62544;50.826;14.354;2023-02-03T15:39:15;12.67;;;2.07;;
74180;SDS011;62544;50.826;14.354;2023-02-03T15:47:49;12.67;;;2.07;;
74180;SDS011;62544;50.826;14.354;2023-02-03T15:52:01;12.67;;;2.07;;
74180;SDS011;62544;50.826;14.354;2023-02-03T15:56:34;12.67;;;2.07;;
74180;SDS011;62544;50.826;14.354;2023-02-03T16:00:38;13.89;;;2.29;;
74180;SDS011;62544;50.826;14.354;2023-02-03T16:04:48;13.89;;;2.29;;
74180;SDS011;62544;50.826;14.354;2023-02-03T16:09:04;13.89;;;2.29;;
74180;SDS011;62544;50.826;14.354;2023-02-03T16:13:21;13.89;;;2.29;;
74180;SDS011;62544;50.826;14.354;2023-02-03T16:17:36;13.89;;;2.29;;
74180;SDS011;62544;50.826;14.354;2023-02-03T16:21:52;13.89;;;2.29;;
74180;SDS011;62544;50.826;14.354;2023-02-03T16:26:17;13.89;;;2.29;;
74180;SDS011;62544;50.826;14.354;2023-02-03T16:30:24;10.91;;;1.84;;
74180;SDS011;62544;50.826;14.354;2023-02-03T16:34:40;10.91;;;1.84;;
74180;SDS011;62544;50.826;14.354;2023-02-03T16:38:56;10.91;;;1.84;;
74180;SDS011;62544;50.826;14.354;2023-02-03T16:43:12;10.91;;;1.84;;
74180;SDS011;62544;50.826;14.354;2023-02-03T16:47:29;10.91;;;1.84;;
74180;SDS011;62544;50.826;14.354;2023-02-03T16:51:44;10.91;;;1.84;;
74180;SDS011;62544;50.826;14.354;2023-02-03T16:56:00;10.91;;;1.84;;
74180;SDS011;62544;50.826;14.354;2023-02-03T17:00:16;10.91;;;1.84;;
74180;SDS011;62544;50.826;14.354;2023-02-03T17:04:32;10.91;;;1.84;;
74180;SDS011;62544;50.826;14.354;2023-02-03T17:08:48;10.91;;;1.84;;
74180;SDS011;62544;50.826;14.354;2023-02-03T17:13:04;10.91;;;1.84;;
74180;SDS011;62544;50.826;14.354;2023-02-03T17:17:19;14.78;;;2.87;;
74180;SDS011;62544;50.826;14.354;2023-02-03T17:21:35;14.78;;;2.87;;
74180;SDS011;62544;50.826;14.354;2023-02-03T17:25:51;14.78;;;2.87;;
74180;SDS011;62544;50.826;14.354;2023-02-03T17:30:08;14.78;;;2.87;;
74180;SDS011;62544;50.826;14.354;2023-02-03T17:34:24;14.78;;;2.87;;
74180;SDS011;62544;50.826;14.354;2023-02-03T17:38:40;14.78;;;2.87;;
74180;SDS011;62544;50.826;14.354;2023-02-03T17:42:56;14.78;;;2.87;;
74180;SDS011;62544;50.826;14.354;2023-02-03T17:47:12;14.78;;;2.87;;
74180;SDS011;62544;50.826;14.354;2023-02-03T17:51:28;14.78;;;2.87;;
74180;SDS011;62544;50.826;14.354;2023-02-03T17:55:44;14.78;;;2.87;;
74180;SDS011;62544;50.826;14.354;2023-02-03T18:00:00;18.65;;;2.86;;
74180;SDS011;62544;50.826;14.354;2023-02-03T18:04:16;18.65;;;2.86;;
74180;SDS011;62544;50.826;14.354;2023-02-03T18:08:33;18.73;;;2.90;;
74180;SDS011;62544;50.826;14.354;2023-02-03T18:12:48;18.73;;;2.90;;
74180;SDS011;62544;50.826;14.354;2023-02-03T18:17:04;18.73;;;2.90;;
74180;SDS011;62544;50.826;14.354;2023-02-03T18:21:21;18.73;;;2.90;;
74180;SDS011;62544;50.826;14.354;2023-02-03T18:25:36;18.73;;;2.90;;
74180;SDS011;62544;50.826;14.354;2023-02-03T18:29:52;18.98;;;3.54;;
74180;SDS011;62544;50.826;14.354;2023-02-03T18:34:08;18.98;;;3.54;;
74180;SDS011;62544;50.826;14.354;2023-02-03T18:38:24;17.29;;;2.66;;
74180;SDS011;62544;50.826;14.354;2023-02-03T18:42:44;17.29;;;2.66;;
74180;SDS011;62544;50.826;14.354;2023-02-03T18:46:59;17.29;;;2.66;;
74180;SDS011;62544;50.826;14.354;2023-02-03T18:51:14;21.36;;;3.29;;
74180;SDS011;62544;50.826;14.354;2023-02-03T18:55:28;21.36;;;3.29;;
74180;SDS011;62544;50.826;14.354;2023-02-03T18:59:45;13.68;;;2.24;;
74180;SDS011;62544;50.826;14.354;2023-02-03T19:04:00;13.68;;;2.24;;
74180;SDS011;62544;50.826;14.354;2023-02-03T19:08:16;13.31;;;2.72;;
74180;SDS011;62544;50.826;14.354;2023-02-03T19:12:35;13.31;;;2.72;;
74180;SDS011;62544;50.826;14.354;2023-02-03T19:16:48;13.31;;;2.72;;
74180;SDS011;62544;50.826;14.354;2023-02-03T19:21:04;16.45;;;2.84;;
74180;SDS011;62544;50.826;14.354;2023-02-03T19:25:20;16.45;;;2.84;;
74180;SDS011;62544;50.826;14.354;2023-02-03T19:29:36;18.21;;;3.13;;
74180;SDS011;62544;50.826;14.354;2023-02-03T19:33:55;18.21;;;3.13;;
74180;SDS011;62544;50.826;14.354;2023-02-03T19:38:10;15.44;;;2.71;;
74180;SDS011;62544;50.826;14.354;2023-02-03T19:42:24;15.44;;;2.71;;
74180;SDS011;62544;50.826;14.354;2023-02-03T19:46:40;15.44;;;2.71;;
74180;SDS011;62544;50.826;14.354;2023-02-03T19:50:56;15.44;;;2.71;;
74180;SDS011;62544;50.826;14.354;2023-02-03T19:55:12;15.44;;;2.71;;
74180;SDS011;62544;50.826;14.354;2023-02-03T19:59:28;15.44;;;2.71;;
74180;SDS011;62544;50.826;14.354;2023-02-03T20:03:44;15.44;;;2.71;;
74180;SDS011;62544;50.826;14.354;2023-02-03T20:08:00;15.44;;;2.71;;
74180;SDS011;62544;50.826;14.354;2023-02-03T20:12:16;15.44;;;2.71;;
74180;SDS011;62544;50.826;14.354;2023-02-03T20:16:32;15.44;;;2.71;;
74180;SDS011;62544;50.826;14.354;2023-02-03T20:20:52;15.44;;;2.71;;
74180;SDS011;62544;50.826;14.354;2023-02-03T20:25:04;15.44;;;2.71;;
74180;SDS011;62544;50.826;14.354;2023-02-03T20:29:20;15.44;;;2.71;;
74180;SDS011;62544;50.826;14.354;2023-02-03T20:33:36;15.44;;;2.71;;
74180;SDS011;62544;50.826;14.354;2023-02-03T20:37:52;15.44;;;2.71;;
74180;SDS011;62544;50.826;14.354;2023-02-03T20:42:09;15.44;;;2.71;;
74180;SDS011;62544;50.826;14.354;2023-02-03T20:46:24;15.44;;;2.71;;
74180;SDS011;62544;50.826;14.354;2023-02-03T20:50:40;15.44;;;2.71;;
74180;SDS011;62544;50.826;14.354;2023-02-03T20:54:56;15.44;;;2.71;;
74180;SDS011;62544;50.826;14.354;2023-02-03T20:59:12;7.09;;;1.06;;
74180;SDS011;62544;50.826;14.354;2023-02-03T21:03:28;7.09;;;1.06;;
74180;SDS011;62544;50.826;14.354;2023-02-03T21:07:44;7.09;;;1.06;;
74180;SDS011;62544;50.826;14.354;2023-02-03T21:12:00;7.09;;;1.06;;
74180;SDS011;62544;50.826;14.354;2023-02-03T21:16:23;7.09;;;1.06;;
74180;SDS011;62544;50.826;14.354;2023-02-03T21:20:32;7.09;;;1.06;;
74180;SDS011;62544;50.826;14.354;2023-02-03T21:24:49;7.09;;;1.06;;
74180;SDS011;62544;50.826;14.354;2023-02-03T21:29:06;7.09;;;1.06;;
74180;SDS011;62544;50.826;14.354;2023-02-03T21:33:37;7.09;;;1.06;;
74180;SDS011;62544;50.826;14.354;2023-02-03T21:37:37;7.09;;;1.06;;
74180;SDS011;62544;50.826;14.354;2023-02-03T21:41:52;7.09;;;1.06;;
74180;SDS011;62544;50.826;14.354;2023-02-03T21:50:30;7.09;;;1.06;;
74180;SDS011;62544;50.826;14.354;2023-02-03T21:54:40;7.09;;;1.06;;
74180;SDS011;62544;50.826;14.354;2023-02-03T21:58:56;7.09;;;1.06;;
74180;SDS011;62544;50.826;14.354;2023-02-03T22:03:28;7.09;;;1.06;;
74180;SDS011;62544;50.826;14.354;2023-02-03T22:07:28;4.29;;;0.94;;
74180;SDS011;62544;50.826;14.354;2023-02-03T22:11:45;4.29;;;0.94;;
74180;SDS011;62544;50.826;14.354;2023-02-03T22:16:00;4.29;;;0.94;;
74180;SDS011;62544;50.826;14.354;2023-02-03T22:20:16;4.29;;;0.94;;
74180;SDS011;62544;50.826;14.354;2023-02-03T22:24:32;4.29;;;0.94;;
74180;SDS011;62544;50.826;14.354;2023-02-03T22:28:48;4.29;;;0.94;;
74180;SDS011;62544;50.826;14.354;2023-02-03T22:33:04;4.29;;;0.94;;
74180;SDS011;62544;50.826;14.354;2023-02-03T22:37:20;4.29;;;0.94;;
74180;SDS011;62544;50.826;14.354;2023-02-03T22:41:36;4.29;;;0.94;;
74180;SDS011;62544;50.826;14.354;2023-02-03T22:45:52;4.29;;;0.94;;
74180;SDS011;62544;50.826;14.354;2023-02-03T22:50:09;3.41;;;0.57;;
74180;SDS011;62544;50.826;14.354;2023-02-03T22:54:24;3.41;;;0.57;;
74180;SDS011;62544;50.826;14.354;2023-02-03T22:58:40;3.06;;;0.60;;
74180;SDS011;62544;50.826;14.354;2023-02-03T23:02:56;3.06;;;0.60;;
74180;SDS011;62544;50.826;14.354;2023-02-03T23:07:12;2.78;;;0.51;;
74180;SDS011;62544;50.826;14.354;2023-02-03T23:11:28;2.78;;;0.51;;
74180;SDS011;62544;50.826;14.354;2023-02-03T23:15:44;2.78;;;0.51;;
74180;SDS011;62544;50.826;14.354;2023-02-03T23:20:00;2.78;;;0.51;;
74180;SDS011;62544;50.826;14.354;2023-02-03T23:24:16;2.78;;;0.51;;
74180;SDS011;62544;50.826;14.354;2023-02-03T23:28:32;2.78;;;0.51;;
74180;SDS011;62544;50.826;14.354;2023-02-03T23:32:48;2.78;;;0.51;;
74180;SDS011;62544;50.826;14.354;2023-02-03T23:37:04;2.78;;;0.51;;
74180;SDS011;62544;50.826;14.354;2023-02-03T23:41:20;2.78;;;0.51;;
74180;SDS011;62544;50.826;14.354;2023-02-03T23:45:36;2.78;;;0.51;;
74180;SDS011;62544;50.826;14.354;2023-02-03T23:49:52;2.78;;;0.51;;
74180;SDS011;62544;50.826;14.354;2023-02-03T23:54:08;2.78;;;0.51;;
74180;SDS011;62544;50.826;14.354;2023-02-03T23:58:24;2.78;;;0.51;;
